Terminal Aerodrome Forecast
Issued by NWS

Current Version | Previous Version | Graphics & Text | Print | Product List | Glossary On
Versions: 1 2 3 4 5 6 7 8 9 10 11 12 13 14 15 16 17
000
FTUS41 KPBZ 242300
TAFMGW
TAF
KMGW 242320Z 2500/2524 21010KT P6SM SKC
     FM250200 22010KT P6SM OVC100
     FM250400 25012KT P6SM OVC025
     FM250900 25012G18KT P6SM OVC015
     FM251600 28012KT P6SM OVC025=

USA.gov is the U.S. government's official web portal to all federal, state and local government web resources and services.